Terminal Aerodrome Forecast
Issued by NWS Pendleton, OR

Home | Current Version | Previous Version | Text Only | Print | Product List | Glossary On
Versions: 1 2 3 4 5 6 7 8 9 10 11 12 13 14 15 16 17 18 19 20 21
056
FTUS46 KPDT 240520
TAFPDT
TAF
KPDT 240520Z 2406/2506 18006KT P6SM FEW080 BKN200
     FM241800 29010KT P6SM SCT080
     FM250400 25007KT P6SM FEW080=

USA.gov is the U.S. government's official web portal to all federal, state and local government web resources and services.